Погода METAR - Новосибирск (Толмачево)

Кемерово, Новокузнецк Абакан, Красноярск, Новосибирск
Код METAR: UNNT 092030Z 17005MPS CAVOK 14/12 Q0996 R07/290255 R16/////// NOSIG RMK QFE737/0983

Погода - Сейчас

Время: 2026-05-10 03:30, местное
Направление ветра: Юг (170°)
Скорость ветра: 5 м/с
Видимость: более 10км, отсутствие осадков и облаков ниже 1500 м
Температура: 14°C
Точка росы: 12°C
Атмосферное давление: 996 гПа

Архив погоды

Время, местное Направление Скорость, м/с Температура, °C Точка росы, °C Давление, гПа Видимость
2026-05-10 03:30 Ю (170°) 5 14 12 996 более 10км, отсутствие осадков и облаков ниже 1500 м
2026-05-10 02:30 ЮЮВ (160°) 4 14 12 997 более 10км, отсутствие осадков и облаков ниже 1500 м
2026-05-08 14:30 СЗ (320°) 2 24 7 1011 менее 0.28 км
2026-05-08 07:00 Штиль 0 14 10 1012 более 10км, отсутствие осадков и облаков ниже 1500 м
2026-05-08 05:30 ЮВ (130°) 2 12 10 1012 более 10км, отсутствие осадков и облаков ниже 1500 м
2026-05-08 04:00 Ю (190°) 1 14 9 1012 более 10км, отсутствие осадков и облаков ниже 1500 м
2026-05-07 13:30 Ю (190°) 2 18 11 1017 менее 0.13 км
2026-05-05 09:30 ЮЮЗ (200°) 4 15 1 1017 более 10км, отсутствие осадков и облаков ниже 1500 м
2026-05-02 08:00 ЮЮВ (160°) 6 18 -1 1005 более 10км, отсутствие осадков и облаков ниже 1500 м
2026-05-01 10:00 Ю (170°) 3 20 -2 1019 более 10км, отсутствие осадков и облаков ниже 1500 м
2026-04-01 07:00 Переменный 1 9 -2 1019 более 10км, отсутствие осадков и облаков ниже 1500 м
2026-04-29 20:00 ЮЮВ (160°) 3 18 -4 1026 более 10км, отсутствие осадков и облаков ниже 1500 м
2026-04-27 14:30 ЗЮЗ (260°) 7 16 -3 1019 более 10км, отсутствие осадков и облаков ниже 1500 м
2026-04-25 11:00 ЮЮЗ (200°) 3 19 5 1017 более 10км, отсутствие осадков и облаков ниже 1500 м
2026-04-24 15:30 ЮЗ (220°) 6 16 3 1015 более 10км, отсутствие осадков и облаков ниже 1500 м
2026-04-22 22:00 СВ (50°) 2 6 -2 1010 более 10км, отсутствие осадков и облаков ниже 1500 м
2026-04-19 23:00 СВ (40°) 3 1 0 1020 более 10км
2026-04-17 13:35 СЗ (320°) 8 -4 -6 1015 менее 0.2 км
2026-04-15 23:00 СЗ (320°) 6 -2 -6 1014 более 10км
2026-04-14 12:00 СЗ (320°) 4 0 -12 1028 более 10км
2026-04-13 07:00 СЗ (310°) 4 2 -1 1016 более 10км, отсутствие осадков и облаков ниже 1500 м
2026-04-11 07:30 С (360°) 2 -4 -10 1030 более 10км
2026-04-10 17:00 С (350°) 7 1 -8 1019 более 10км, отсутствие осадков и облаков ниже 1500 м
2026-04-10 02:30 СВ (30°) 3 -1 -10 1020 более 10км, отсутствие осадков и облаков ниже 1500 м
2026-04-09 22:00 СВ (40°) 4 1 -9 1021 более 10км, отсутствие осадков и облаков ниже 1500 м
2026-04-08 13:30 ЗЮЗ (240°) 6 7 2 1002 более 10км
2026-04-07 05:00 СВ (30°) 2 2 2 1016 менее 9 км
2026-04-04 10:00 ЮВ (140°) 2 0 0 1017 менее 7 км
2026-04-04 04:01 ЮЮВ (150°) 1 -1 -1 1017 менее 2.8 км
2026-03-29 16:00 ЮЗ (210°) 4 6 0 1014 более 10км, отсутствие осадков и облаков ниже 1500 м
2026-03-29 03:00 ЮЗ (210°) 2 1 -2 1018 более 10км, отсутствие осадков и облаков ниже 1500 м
2026-03-28 10:30 Ю (190°) 2 -1 -1 1027 более 10км, отсутствие осадков и облаков ниже 1500 м
2026-03-27 22:19 Ю (170°) 3 0 0 1029 менее 0.15 км
2026-03-26 04:00 ЮЮЗ (200°) 3 2 -1 1022 более 10км, отсутствие осадков и облаков ниже 1500 м
2026-03-25 22:00 ЮЗ (220°) 6 2 -2 1022 более 10км
2026-03-25 01:30 ЮЗ (220°) 5 1 -4 1023 более 10км, отсутствие осадков и облаков ниже 1500 м
2026-03-24 08:00 З (280°) 4 0 0 1011 более 10км
2026-03-24 00:17 ЮЗ (220°) 7 0 -2 1010 менее 2.9 км
2026-03-23 09:00 ЮЗ (210°) 6 -2 -3 1013 более 10км, отсутствие осадков и облаков ниже 1500 м
2026-03-22 01:00 ЮЗ (210°) 6 0 -5 1013 более 10км, отсутствие осадков и облаков ниже 1500 м
2026-03-21 03:30 ЮЮЗ (200°) 4 -3 -5 1017 более 10км, отсутствие осадков и облаков ниже 1500 м
2026-03-18 16:30 З (270°) 8 -1 -3 1015 менее 7 км
2026-03-17 22:00 ЗЮЗ (240°) 4 -4 -7 1025 более 10км, отсутствие осадков и облаков ниже 1500 м
2026-03-17 15:30 ЮЮЗ (200°) 3 -2 -7 1029 более 10км, отсутствие осадков и облаков ниже 1500 м
2026-03-15 15:30 ССЗ (340°) 5 -4 -13 1027 более 10км, отсутствие осадков и облаков ниже 1500 м
2026-03-15 14:30 С (350°) 7 -4 -14 1026 более 10км, отсутствие осадков и облаков ниже 1500 м
2026-03-14 03:00 ЮЗ (220°) 3 -8 -9 1031 менее 9 км
2026-03-14 00:00 ЮЗ (230°) 4 -7 -9 1030 более 10км, отсутствие осадков и облаков ниже 1500 м